sensor_id;sensor_type;location;lat;lon;timestamp;P1;durP1;ratioP1;P2;durP2;ratioP2
73980;SDS011;62348;51.412;5.436;2023-05-07T00:01:12;8.73;;;7.88;;
73980;SDS011;62348;51.412;5.436;2023-05-07T00:03:37;9.13;;;8.18;;
73980;SDS011;62348;51.412;5.436;2023-05-07T00:06:04;9.95;;;8.95;;
73980;SDS011;62348;51.412;5.436;2023-05-07T00:08:29;11.40;;;10.20;;
73980;SDS011;62348;51.412;5.436;2023-05-07T00:10:55;12.80;;;11.48;;
73980;SDS011;62348;51.412;5.436;2023-05-07T00:13:20;13.10;;;11.70;;
73980;SDS011;62348;51.412;5.436;2023-05-07T00:15:45;11.02;;;9.70;;
73980;SDS011;62348;51.412;5.436;2023-05-07T00:18:11;11.05;;;9.80;;
73980;SDS011;62348;51.412;5.436;2023-05-07T00:20:36;11.88;;;10.68;;
73980;SDS011;62348;51.412;5.436;2023-05-07T00:23:02;12.73;;;11.48;;
73980;SDS011;62348;51.412;5.436;2023-05-07T00:25:27;13.02;;;11.73;;
73980;SDS011;62348;51.412;5.436;2023-05-07T00:27:53;13.05;;;11.15;;
73980;SDS011;62348;51.412;5.436;2023-05-07T00:30:18;13.98;;;12.07;;
73980;SDS011;62348;51.412;5.436;2023-05-07T00:32:44;12.32;;;11.07;;
73980;SDS011;62348;51.412;5.436;2023-05-07T00:35:10;12.93;;;11.73;;
73980;SDS011;62348;51.412;5.436;2023-05-07T00:37:36;12.20;;;11.00;;
73980;SDS011;62348;51.412;5.436;2023-05-07T00:40:02;12.70;;;11.40;;
73980;SDS011;62348;51.412;5.436;2023-05-07T00:42:29;12.38;;;11.18;;
73980;SDS011;62348;51.412;5.436;2023-05-07T00:44:57;13.23;;;11.82;;
73980;SDS011;62348;51.412;5.436;2023-05-07T00:47:23;11.88;;;10.48;;
73980;SDS011;62348;51.412;5.436;2023-05-07T00:49:52;12.68;;;11.48;;
73980;SDS011;62348;51.412;5.436;2023-05-07T00:52:17;12.82;;;11.48;;
73980;SDS011;62348;51.412;5.436;2023-05-07T00:54:46;12.43;;;10.88;;
73980;SDS011;62348;51.412;5.436;2023-05-07T00:57:12;12.45;;;11.25;;
73980;SDS011;62348;51.412;5.436;2023-05-07T00:59:37;12.75;;;11.30;;
73980;SDS011;62348;51.412;5.436;2023-05-07T01:02:04;12.80;;;11.50;;
73980;SDS011;62348;51.412;5.436;2023-05-07T01:04:30;11.38;;;10.38;;
73980;SDS011;62348;51.412;5.436;2023-05-07T01:06:55;11.98;;;10.88;;
73980;SDS011;62348;51.412;5.436;2023-05-07T01:09:23;11.82;;;10.73;;
73980;SDS011;62348;51.412;5.436;2023-05-07T01:11:50;11.85;;;10.75;;
73980;SDS011;62348;51.412;5.436;2023-05-07T01:14:16;13.43;;;12.02;;
73980;SDS011;62348;51.412;5.436;2023-05-07T01:16:43;12.45;;;11.25;;
73980;SDS011;62348;51.412;5.436;2023-05-07T01:19:09;15.88;;;11.95;;
73980;SDS011;62348;51.412;5.436;2023-05-07T01:21:38;13.48;;;11.88;;
73980;SDS011;62348;51.412;5.436;2023-05-07T01:24:12;12.38;;;11.13;;
73980;SDS011;62348;51.412;5.436;2023-05-07T01:26:39;14.70;;;12.43;;
73980;SDS011;62348;51.412;5.436;2023-05-07T01:29:05;14.00;;;12.05;;
73980;SDS011;62348;51.412;5.436;2023-05-07T01:31:31;12.57;;;11.38;;
73980;SDS011;62348;51.412;5.436;2023-05-07T01:33:59;13.43;;;12.13;;
73980;SDS011;62348;51.412;5.436;2023-05-07T01:36:28;12.50;;;11.20;;
73980;SDS011;62348;51.412;5.436;2023-05-07T01:38:55;13.55;;;12.15;;
73980;SDS011;62348;51.412;5.436;2023-05-07T01:41:22;13.95;;;12.65;;
73980;SDS011;62348;51.412;5.436;2023-05-07T01:43:48;14.25;;;12.85;;
73980;SDS011;62348;51.412;5.436;2023-05-07T01:46:17;14.23;;;12.75;;
73980;SDS011;62348;51.412;5.436;2023-05-07T01:48:43;13.65;;;12.30;;
73980;SDS011;62348;51.412;5.436;2023-05-07T01:51:11;13.55;;;12.25;;
73980;SDS011;62348;51.412;5.436;2023-05-07T01:53:38;14.60;;;13.18;;
73980;SDS011;62348;51.412;5.436;2023-05-07T01:56:04;14.32;;;12.45;;
73980;SDS011;62348;51.412;5.436;2023-05-07T01:58:30;14.55;;;13.02;;
73980;SDS011;62348;51.412;5.436;2023-05-07T02:00:56;14.60;;;13.10;;
73980;SDS011;62348;51.412;5.436;2023-05-07T02:03:21;15.43;;;13.43;;
73980;SDS011;62348;51.412;5.436;2023-05-07T02:05:46;14.32;;;13.00;;
73980;SDS011;62348;51.412;5.436;2023-05-07T02:08:12;15.95;;;14.25;;
73980;SDS011;62348;51.412;5.436;2023-05-07T02:10:37;15.65;;;14.15;;
73980;SDS011;62348;51.412;5.436;2023-05-07T02:13:02;17.15;;;14.35;;
73980;SDS011;62348;51.412;5.436;2023-05-07T02:15:28;16.45;;;14.77;;
73980;SDS011;62348;51.412;5.436;2023-05-07T02:18:00;18.92;;;14.93;;
73980;SDS011;62348;51.412;5.436;2023-05-07T02:20:27;16.13;;;14.52;;
73980;SDS011;62348;51.412;5.436;2023-05-07T02:22:53;16.67;;;15.02;;
73980;SDS011;62348;51.412;5.436;2023-05-07T02:25:18;17.15;;;15.40;;
73980;SDS011;62348;51.412;5.436;2023-05-07T02:27:44;16.75;;;15.13;;
73980;SDS011;62348;51.412;5.436;2023-05-07T02:30:10;19.60;;;17.38;;
73980;SDS011;62348;51.412;5.436;2023-05-07T02:32:35;18.58;;;15.55;;
73980;SDS011;62348;51.412;5.436;2023-05-07T02:35:01;18.25;;;16.35;;
73980;SDS011;62348;51.412;5.436;2023-05-07T02:37:26;19.38;;;17.40;;
73980;SDS011;62348;51.412;5.436;2023-05-07T02:39:52;21.75;;;18.65;;
73980;SDS011;62348;51.412;5.436;2023-05-07T02:42:17;21.00;;;17.67;;
73980;SDS011;62348;51.412;5.436;2023-05-07T02:44:42;19.73;;;17.67;;
73980;SDS011;62348;51.412;5.436;2023-05-07T02:47:08;20.65;;;18.45;;
73980;SDS011;62348;51.412;5.436;2023-05-07T02:49:34;19.63;;;17.48;;
73980;SDS011;62348;51.412;5.436;2023-05-07T02:52:00;22.27;;;19.77;;
73980;SDS011;62348;51.412;5.436;2023-05-07T02:54:25;21.98;;;18.60;;
73980;SDS011;62348;51.412;5.436;2023-05-07T02:56:51;23.25;;;19.83;;
73980;SDS011;62348;51.412;5.436;2023-05-07T02:59:16;27.42;;;20.17;;
73980;SDS011;62348;51.412;5.436;2023-05-07T03:01:41;24.15;;;20.02;;
73980;SDS011;62348;51.412;5.436;2023-05-07T03:04:09;23.50;;;20.92;;
73980;SDS011;62348;51.412;5.436;2023-05-07T03:06:35;22.30;;;19.30;;
73980;SDS011;62348;51.412;5.436;2023-05-07T03:09:01;21.25;;;19.15;;
73980;SDS011;62348;51.412;5.436;2023-05-07T03:11:27;21.38;;;19.13;;
73980;SDS011;62348;51.412;5.436;2023-05-07T03:13:52;25.00;;;20.73;;
73980;SDS011;62348;51.412;5.436;2023-05-07T03:16:18;24.65;;;20.67;;
73980;SDS011;62348;51.412;5.436;2023-05-07T03:18:43;24.77;;;22.20;;
73980;SDS011;62348;51.412;5.436;2023-05-07T03:21:08;23.40;;;20.90;;
73980;SDS011;62348;51.412;5.436;2023-05-07T03:23:34;23.98;;;21.38;;
73980;SDS011;62348;51.412;5.436;2023-05-07T03:25:59;23.52;;;21.10;;
73980;SDS011;62348;51.412;5.436;2023-05-07T03:28:25;27.00;;;22.08;;
73980;SDS011;62348;51.412;5.436;2023-05-07T03:30:50;24.58;;;20.73;;
73980;SDS011;62348;51.412;5.436;2023-05-07T03:33:16;25.90;;;21.63;;
73980;SDS011;62348;51.412;5.436;2023-05-07T03:35:41;24.23;;;20.73;;
73980;SDS011;62348;51.412;5.436;2023-05-07T03:38:06;24.75;;;21.73;;
73980;SDS011;62348;51.412;5.436;2023-05-07T03:40:32;27.15;;;22.10;;
73980;SDS011;62348;51.412;5.436;2023-05-07T03:42:59;22.33;;;20.00;;
73980;SDS011;62348;51.412;5.436;2023-05-07T03:45:25;23.30;;;20.85;;
73980;SDS011;62348;51.412;5.436;2023-05-07T03:47:50;25.63;;;22.92;;
73980;SDS011;62348;51.412;5.436;2023-05-07T03:50:16;27.40;;;23.00;;
73980;SDS011;62348;51.412;5.436;2023-05-07T03:52:41;25.70;;;23.08;;
73980;SDS011;62348;51.412;5.436;2023-05-07T03:55:07;28.00;;;22.92;;
73980;SDS011;62348;51.412;5.436;2023-05-07T03:57:32;25.92;;;23.20;;
73980;SDS011;62348;51.412;5.436;2023-05-07T03:59:58;26.63;;;23.77;;
73980;SDS011;62348;51.412;5.436;2023-05-07T04:02:23;26.67;;;23.58;;
73980;SDS011;62348;51.412;5.436;2023-05-07T04:04:49;26.38;;;23.27;;
73980;SDS011;62348;51.412;5.436;2023-05-07T04:07:14;25.73;;;22.95;;
73980;SDS011;62348;51.412;5.436;2023-05-07T04:09:40;27.67;;;24.23;;
73980;SDS011;62348;51.412;5.436;2023-05-07T04:12:05;26.40;;;23.63;;
73980;SDS011;62348;51.412;5.436;2023-05-07T04:14:31;28.83;;;24.40;;
73980;SDS011;62348;51.412;5.436;2023-05-07T04:16:57;28.35;;;25.13;;
73980;SDS011;62348;51.412;5.436;2023-05-07T04:19:24;26.90;;;23.85;;
73980;SDS011;62348;51.412;5.436;2023-05-07T04:21:50;27.30;;;23.73;;
73980;SDS011;62348;51.412;5.436;2023-05-07T04:24:15;27.42;;;24.52;;
73980;SDS011;62348;51.412;5.436;2023-05-07T04:26:41;30.40;;;25.25;;
73980;SDS011;62348;51.412;5.436;2023-05-07T04:29:06;27.13;;;24.25;;
73980;SDS011;62348;51.412;5.436;2023-05-07T04:31:31;29.55;;;24.77;;
73980;SDS011;62348;51.412;5.436;2023-05-07T04:33:57;28.02;;;24.73;;
73980;SDS011;62348;51.412;5.436;2023-05-07T04:36:22;29.40;;;25.65;;
73980;SDS011;62348;51.412;5.436;2023-05-07T04:38:48;27.05;;;24.13;;
73980;SDS011;62348;51.412;5.436;2023-05-07T04:41:14;29.30;;;25.30;;
73980;SDS011;62348;51.412;5.436;2023-05-07T04:43:40;29.92;;;25.75;;
73980;SDS011;62348;51.412;5.436;2023-05-07T04:46:06;28.88;;;24.77;;
73980;SDS011;62348;51.412;5.436;2023-05-07T04:48:32;30.73;;;26.50;;
73980;SDS011;62348;51.412;5.436;2023-05-07T04:50:57;29.63;;;26.45;;
73980;SDS011;62348;51.412;5.436;2023-05-07T04:53:22;31.30;;;26.92;;
73980;SDS011;62348;51.412;5.436;2023-05-07T04:55:48;30.27;;;26.42;;
73980;SDS011;62348;51.412;5.436;2023-05-07T04:58:13;31.73;;;26.80;;
73980;SDS011;62348;51.412;5.436;2023-05-07T05:00:39;29.90;;;26.35;;
73980;SDS011;62348;51.412;5.436;2023-05-07T05:03:05;29.63;;;26.17;;
73980;SDS011;62348;51.412;5.436;2023-05-07T05:05:32;31.17;;;26.55;;
73980;SDS011;62348;51.412;5.436;2023-05-07T05:07:57;30.50;;;26.38;;
73980;SDS011;62348;51.412;5.436;2023-05-07T05:10:22;31.83;;;27.17;;
73980;SDS011;62348;51.412;5.436;2023-05-07T05:12:48;28.52;;;25.48;;
73980;SDS011;62348;51.412;5.436;2023-05-07T05:15:13;31.85;;;28.02;;
73980;SDS011;62348;51.412;5.436;2023-05-07T05:17:39;31.55;;;27.13;;
73980;SDS011;62348;51.412;5.436;2023-05-07T05:20:04;30.48;;;27.17;;
73980;SDS011;62348;51.412;5.436;2023-05-07T05:22:31;32.08;;;27.90;;
73980;SDS011;62348;51.412;5.436;2023-05-07T05:24:57;32.67;;;27.45;;
73980;SDS011;62348;51.412;5.436;2023-05-07T05:27:22;33.35;;;27.83;;
73980;SDS011;62348;51.412;5.436;2023-05-07T05:29:48;31.65;;;27.10;;
73980;SDS011;62348;51.412;5.436;2023-05-07T05:32:13;32.45;;;29.02;;
73980;SDS011;62348;51.412;5.436;2023-05-07T05:34:39;33.53;;;27.98;;
73980;SDS011;62348;51.412;5.436;2023-05-07T05:37:04;32.58;;;28.08;;
73980;SDS011;62348;51.412;5.436;2023-05-07T05:39:29;29.55;;;26.42;;
73980;SDS011;62348;51.412;5.436;2023-05-07T05:41:55;29.98;;;26.80;;
73980;SDS011;62348;51.412;5.436;2023-05-07T05:44:21;29.30;;;25.85;;
73980;SDS011;62348;51.412;5.436;2023-05-07T05:46:46;29.23;;;26.08;;
73980;SDS011;62348;51.412;5.436;2023-05-07T05:49:12;29.08;;;25.85;;
73980;SDS011;62348;51.412;5.436;2023-05-07T05:51:37;30.85;;;25.13;;
73980;SDS011;62348;51.412;5.436;2023-05-07T05:54:03;31.17;;;26.90;;
73980;SDS011;62348;51.412;5.436;2023-05-07T05:56:29;29.63;;;26.50;;
73980;SDS011;62348;51.412;5.436;2023-05-07T05:58:55;36.97;;;28.33;;
73980;SDS011;62348;51.412;5.436;2023-05-07T06:01:20;33.17;;;27.25;;
73980;SDS011;62348;51.412;5.436;2023-05-07T06:03:46;29.38;;;26.17;;
73980;SDS011;62348;51.412;5.436;2023-05-07T06:06:11;28.80;;;25.60;;
73980;SDS011;62348;51.412;5.436;2023-05-07T06:08:36;30.45;;;25.55;;
73980;SDS011;62348;51.412;5.436;2023-05-07T06:11:02;28.95;;;24.85;;
73980;SDS011;62348;51.412;5.436;2023-05-07T06:13:28;26.42;;;23.48;;
73980;SDS011;62348;51.412;5.436;2023-05-07T06:15:53;29.83;;;24.98;;
73980;SDS011;62348;51.412;5.436;2023-05-07T06:18:18;26.50;;;23.65;;
73980;SDS011;62348;51.412;5.436;2023-05-07T06:20:44;27.23;;;24.30;;
73980;SDS011;62348;51.412;5.436;2023-05-07T06:23:09;27.27;;;23.63;;
73980;SDS011;62348;51.412;5.436;2023-05-07T06:25:35;26.15;;;23.02;;
73980;SDS011;62348;51.412;5.436;2023-05-07T06:28:00;26.85;;;23.98;;
73980;SDS011;62348;51.412;5.436;2023-05-07T06:30:25;26.42;;;23.63;;
73980;SDS011;62348;51.412;5.436;2023-05-07T06:32:51;27.90;;;22.20;;
73980;SDS011;62348;51.412;5.436;2023-05-07T06:35:17;27.08;;;24.15;;
73980;SDS011;62348;51.412;5.436;2023-05-07T06:37:42;30.83;;;24.77;;
73980;SDS011;62348;51.412;5.436;2023-05-07T06:40:08;24.77;;;22.00;;
73980;SDS011;62348;51.412;5.436;2023-05-07T06:42:37;27.25;;;21.90;;
73980;SDS011;62348;51.412;5.436;2023-05-07T06:45:03;28.73;;;22.30;;
73980;SDS011;62348;51.412;5.436;2023-05-07T06:47:29;23.23;;;20.73;;
73980;SDS011;62348;51.412;5.436;2023-05-07T06:49:54;29.08;;;22.65;;
73980;SDS011;62348;51.412;5.436;2023-05-07T06:52:20;25.00;;;22.08;;
73980;SDS011;62348;51.412;5.436;2023-05-07T06:54:45;25.20;;;21.77;;
73980;SDS011;62348;51.412;5.436;2023-05-07T06:57:11;24.67;;;20.17;;
73980;SDS011;62348;51.412;5.436;2023-05-07T06:59:36;23.73;;;20.30;;
73980;SDS011;62348;51.412;5.436;2023-05-07T07:02:01;24.33;;;21.10;;
73980;SDS011;62348;51.412;5.436;2023-05-07T07:04:27;27.98;;;21.75;;
73980;SDS011;62348;51.412;5.436;2023-05-07T07:06:53;23.70;;;20.58;;
73980;SDS011;62348;51.412;5.436;2023-05-07T07:09:19;20.50;;;17.33;;
73980;SDS011;62348;51.412;5.436;2023-05-07T07:11:44;24.13;;;20.65;;
73980;SDS011;62348;51.412;5.436;2023-05-07T07:14:10;23.23;;;20.73;;
73980;SDS011;62348;51.412;5.436;2023-05-07T07:16:35;25.83;;;21.90;;
73980;SDS011;62348;51.412;5.436;2023-05-07T07:19:00;27.02;;;22.08;;
73980;SDS011;62348;51.412;5.436;2023-05-07T07:21:26;24.98;;;21.67;;
73980;SDS011;62348;51.412;5.436;2023-05-07T07:23:51;24.23;;;21.45;;
73980;SDS011;62348;51.412;5.436;2023-05-07T07:26:17;24.40;;;21.25;;
73980;SDS011;62348;51.412;5.436;2023-05-07T07:28:43;22.42;;;20.02;;
73980;SDS011;62348;51.412;5.436;2023-05-07T07:31:10;23.50;;;19.95;;
73980;SDS011;62348;51.412;5.436;2023-05-07T07:33:36;23.63;;;21.23;;
73980;SDS011;62348;51.412;5.436;2023-05-07T07:36:01;25.67;;;21.23;;
73980;SDS011;62348;51.412;5.436;2023-05-07T07:38:27;26.38;;;21.30;;
73980;SDS011;62348;51.412;5.436;2023-05-07T07:40:53;22.73;;;20.52;;
73980;SDS011;62348;51.412;5.436;2023-05-07T07:43:18;24.17;;;21.00;;
73980;SDS011;62348;51.412;5.436;2023-05-07T07:45:44;22.75;;;20.35;;
73980;SDS011;62348;51.412;5.436;2023-05-07T07:48:10;25.13;;;22.02;;
73980;SDS011;62348;51.412;5.436;2023-05-07T07:50:36;22.25;;;19.90;;
73980;SDS011;62348;51.412;5.436;2023-05-07T07:53:01;24.67;;;20.92;;
73980;SDS011;62348;51.412;5.436;2023-05-07T07:55:27;24.45;;;20.73;;
73980;SDS011;62348;51.412;5.436;2023-05-07T07:57:53;22.25;;;19.60;;
73980;SDS011;62348;51.412;5.436;2023-05-07T08:00:18;23.27;;;20.33;;
73980;SDS011;62348;51.412;5.436;2023-05-07T08:02:44;22.02;;;19.48;;
73980;SDS011;62348;51.412;5.436;2023-05-07T08:05:09;22.52;;;20.13;;
73980;SDS011;62348;51.412;5.436;2023-05-07T08:07:35;23.02;;;20.38;;
73980;SDS011;62348;51.412;5.436;2023-05-07T08:10:01;21.90;;;19.55;;
73980;SDS011;62348;51.412;5.436;2023-05-07T08:12:27;22.15;;;19.77;;
73980;SDS011;62348;51.412;5.436;2023-05-07T08:14:52;20.63;;;18.50;;
73980;SDS011;62348;51.412;5.436;2023-05-07T08:17:18;21.80;;;19.52;;
73980;SDS011;62348;51.412;5.436;2023-05-07T08:19:44;23.48;;;19.55;;
73980;SDS011;62348;51.412;5.436;2023-05-07T08:22:09;21.27;;;18.73;;
73980;SDS011;62348;51.412;5.436;2023-05-07T08:24:35;19.70;;;17.65;;
73980;SDS011;62348;51.412;5.436;2023-05-07T08:27:01;20.88;;;18.63;;
73980;SDS011;62348;51.412;5.436;2023-05-07T08:29:26;19.85;;;17.73;;
73980;SDS011;62348;51.412;5.436;2023-05-07T08:31:52;21.33;;;17.48;;
73980;SDS011;62348;51.412;5.436;2023-05-07T08:34:17;20.00;;;17.55;;
73980;SDS011;62348;51.412;5.436;2023-05-07T08:36:43;19.15;;;15.45;;
73980;SDS011;62348;51.412;5.436;2023-05-07T08:39:11;19.52;;;14.63;;
73980;SDS011;62348;51.412;5.436;2023-05-07T08:41:36;18.38;;;16.15;;
73980;SDS011;62348;51.412;5.436;2023-05-07T08:44:02;19.50;;;16.55;;
73980;SDS011;62348;51.412;5.436;2023-05-07T08:46:31;18.67;;;16.83;;
73980;SDS011;62348;51.412;5.436;2023-05-07T08:48:57;18.42;;;16.52;;
73980;SDS011;62348;51.412;5.436;2023-05-07T08:51:23;18.63;;;16.67;;
73980;SDS011;62348;51.412;5.436;2023-05-07T08:53:48;23.88;;;17.42;;
73980;SDS011;62348;51.412;5.436;2023-05-07T08:56:15;19.10;;;16.88;;
73980;SDS011;62348;51.412;5.436;2023-05-07T08:58:41;19.40;;;17.50;;
73980;SDS011;62348;51.412;5.436;2023-05-07T09:01:18;17.70;;;15.88;;
73980;SDS011;62348;51.412;5.436;2023-05-07T09:03:44;18.52;;;16.55;;
73980;SDS011;62348;51.412;5.436;2023-05-07T09:06:10;18.65;;;16.75;;
73980;SDS011;62348;51.412;5.436;2023-05-07T09:08:36;18.13;;;16.23;;
73980;SDS011;62348;51.412;5.436;2023-05-07T09:11:02;18.08;;;16.17;;
73980;SDS011;62348;51.412;5.436;2023-05-07T09:13:28;17.55;;;14.98;;
73980;SDS011;62348;51.412;5.436;2023-05-07T09:15:54;18.58;;;15.65;;
73980;SDS011;62348;51.412;5.436;2023-05-07T09:18:19;17.33;;;15.55;;
73980;SDS011;62348;51.412;5.436;2023-05-07T09:20:45;20.80;;;15.95;;
73980;SDS011;62348;51.412;5.436;2023-05-07T09:23:10;17.98;;;15.15;;
73980;SDS011;62348;51.412;5.436;2023-05-07T09:25:36;16.70;;;14.93;;
73980;SDS011;62348;51.412;5.436;2023-05-07T09:28:02;16.10;;;14.50;;
73980;SDS011;62348;51.412;5.436;2023-05-07T09:30:33;17.50;;;14.93;;
73980;SDS011;62348;51.412;5.436;2023-05-07T09:33:00;19.10;;;15.50;;
73980;SDS011;62348;51.412;5.436;2023-05-07T09:35:26;16.08;;;14.48;;
73980;SDS011;62348;51.412;5.436;2023-05-07T09:37:53;16.70;;;14.80;;
73980;SDS011;62348;51.412;5.436;2023-05-07T09:40:23;16.38;;;14.40;;
73980;SDS011;62348;51.412;5.436;2023-05-07T09:42:50;16.85;;;14.00;;
73980;SDS011;62348;51.412;5.436;2023-05-07T09:45:16;15.60;;;13.27;;
73980;SDS011;62348;51.412;5.436;2023-05-07T09:47:47;14.02;;;12.52;;
73980;SDS011;62348;51.412;5.436;2023-05-07T09:50:14;15.57;;;12.77;;
73980;SDS011;62348;51.412;5.436;2023-05-07T09:52:40;15.68;;;12.65;;
73980;SDS011;62348;51.412;5.436;2023-05-07T09:55:09;14.55;;;11.65;;
73980;SDS011;62348;51.412;5.436;2023-05-07T09:57:35;17.13;;;11.85;;
73980;SDS011;62348;51.412;5.436;2023-05-07T10:00:01;14.63;;;11.07;;
73980;SDS011;62348;51.412;5.436;2023-05-07T10:02:31;12.75;;;11.40;;
73980;SDS011;62348;51.412;5.436;2023-05-07T10:04:59;16.65;;;11.88;;
73980;SDS011;62348;51.412;5.436;2023-05-07T10:07:26;13.15;;;11.25;;
73980;SDS011;62348;51.412;5.436;2023-05-07T10:09:53;13.68;;;11.73;;
73980;SDS011;62348;51.412;5.436;2023-05-07T10:12:19;12.30;;;10.20;;
73980;SDS011;62348;51.412;5.436;2023-05-07T10:14:45;13.57;;;10.02;;
73980;SDS011;62348;51.412;5.436;2023-05-07T10:17:13;11.25;;;10.02;;
73980;SDS011;62348;51.412;5.436;2023-05-07T10:19:40;13.38;;;9.77;;
73980;SDS011;62348;51.412;5.436;2023-05-07T10:22:07;12.10;;;9.77;;
73980;SDS011;62348;51.412;5.436;2023-05-07T10:24:34;10.52;;;9.43;;
73980;SDS011;62348;51.412;5.436;2023-05-07T10:27:06;10.52;;;9.43;;
73980;SDS011;62348;51.412;5.436;2023-05-07T10:32:42;12.35;;;11.13;;
73980;SDS011;62348;51.412;5.436;2023-05-07T10:35:31;12.73;;;10.68;;
73980;SDS011;62348;51.412;5.436;2023-05-07T10:37:57;15.32;;;11.57;;
73980;SDS011;62348;51.412;5.436;2023-05-07T10:40:22;12.93;;;11.20;;
73980;SDS011;62348;51.412;5.436;2023-05-07T10:42:58;11.05;;;9.70;;
73980;SDS011;62348;51.412;5.436;2023-05-07T10:45:25;10.80;;;9.52;;
73980;SDS011;62348;51.412;5.436;2023-05-07T10:50:39;14.30;;;10.57;;
73980;SDS011;62348;51.412;5.436;2023-05-07T10:53:20;13.75;;;10.23;;
73980;SDS011;62348;51.412;5.436;2023-05-07T10:55:51;12.80;;;11.50;;
73980;SDS011;62348;51.412;5.436;2023-05-07T10:58:33;13.05;;;11.43;;
73980;SDS011;62348;51.412;5.436;2023-05-07T11:01:00;14.48;;;11.27;;
73980;SDS011;62348;51.412;5.436;2023-05-07T11:03:27;11.73;;;10.60;;
73980;SDS011;62348;51.412;5.436;2023-05-07T11:06:14;12.15;;;9.75;;
73980;SDS011;62348;51.412;5.436;2023-05-07T11:08:53;11.25;;;10.15;;
73980;SDS011;62348;51.412;5.436;2023-05-07T11:11:19;12.32;;;9.75;;
73980;SDS011;62348;51.412;5.436;2023-05-07T11:13:45;16.58;;;11.27;;
73980;SDS011;62348;51.412;5.436;2023-05-07T11:16:22;13.55;;;11.35;;
73980;SDS011;62348;51.412;5.436;2023-05-07T11:18:55;11.95;;;10.77;;
73980;SDS011;62348;51.412;5.436;2023-05-07T11:21:33;15.07;;;11.00;;
73980;SDS011;62348;51.412;5.436;2023-05-07T11:24:01;13.23;;;10.40;;
73980;SDS011;62348;51.412;5.436;2023-05-07T11:26:28;13.80;;;10.00;;
73980;SDS011;62348;51.412;5.436;2023-05-07T11:29:11;12.07;;;10.80;;
73980;SDS011;62348;51.412;5.436;2023-05-07T11:31:37;13.35;;;10.75;;
73980;SDS011;62348;51.412;5.436;2023-05-07T11:34:03;13.60;;;12.15;;
73980;SDS011;62348;51.412;5.436;2023-05-07T11:36:30;13.25;;;10.55;;
73980;SDS011;62348;51.412;5.436;2023-05-07T11:38:57;11.68;;;10.48;;
73980;SDS011;62348;51.412;5.436;2023-05-07T11:41:22;12.57;;;10.48;;
73980;SDS011;62348;51.412;5.436;2023-05-07T11:43:58;12.57;;;10.63;;
73980;SDS011;62348;51.412;5.436;2023-05-07T11:46:25;11.02;;;9.90;;
73980;SDS011;62348;51.412;5.436;2023-05-07T11:48:51;13.35;;;10.38;;
73980;SDS011;62348;51.412;5.436;2023-05-07T11:51:21;12.07;;;10.60;;
73980;SDS011;62348;51.412;5.436;2023-05-07T11:53:48;11.27;;;10.10;;
73980;SDS011;62348;51.412;5.436;2023-05-07T11:56:15;11.90;;;10.65;;
73980;SDS011;62348;51.412;5.436;2023-05-07T11:58:42;10.75;;;8.02;;
73980;SDS011;62348;51.412;5.436;2023-05-07T12:01:09;9.30;;;7.43;;
73980;SDS011;62348;51.412;5.436;2023-05-07T12:03:36;9.63;;;8.07;;
73980;SDS011;62348;51.412;5.436;2023-05-07T12:06:02;10.23;;;8.77;;
73980;SDS011;62348;51.412;5.436;2023-05-07T12:08:30;12.32;;;10.40;;
73980;SDS011;62348;51.412;5.436;2023-05-07T12:10:56;15.45;;;9.70;;
73980;SDS011;62348;51.412;5.436;2023-05-07T12:13:22;10.50;;;9.48;;
73980;SDS011;62348;51.412;5.436;2023-05-07T12:15:52;13.32;;;9.27;;
73980;SDS011;62348;51.412;5.436;2023-05-07T12:18:19;12.75;;;10.23;;
73980;SDS011;62348;51.412;5.436;2023-05-07T12:20:45;14.05;;;8.57;;
73980;SDS011;62348;51.412;5.436;2023-05-07T12:23:11;14.48;;;7.80;;
73980;SDS011;62348;51.412;5.436;2023-05-07T12:25:38;19.48;;;8.13;;
73980;SDS011;62348;51.412;5.436;2023-05-07T12:28:05;13.68;;;6.22;;
73980;SDS011;62348;51.412;5.436;2023-05-07T12:30:39;14.45;;;5.50;;
73980;SDS011;62348;51.412;5.436;2023-05-07T12:33:06;24.20;;;5.90;;
73980;SDS011;62348;51.412;5.436;2023-05-07T12:35:32;13.55;;;5.03;;
73980;SDS011;62348;51.412;5.436;2023-05-07T12:38:04;8.05;;;5.43;;
73980;SDS011;62348;51.412;5.436;2023-05-07T12:40:46;10.07;;;4.60;;
73980;SDS011;62348;51.412;5.436;2023-05-07T12:43:24;7.90;;;4.05;;
73980;SDS011;62348;51.412;5.436;2023-05-07T12:45:53;7.07;;;3.40;;
73980;SDS011;62348;51.412;5.436;2023-05-07T12:48:20;7.00;;;3.30;;
73980;SDS011;62348;51.412;5.436;2023-05-07T12:50:53;7.40;;;3.70;;
73980;SDS011;62348;51.412;5.436;2023-05-07T12:53:22;5.53;;;3.35;;
73980;SDS011;62348;51.412;5.436;2023-05-07T12:55:50;3.17;;;2.53;;
73980;SDS011;62348;51.412;5.436;2023-05-07T12:58:18;5.43;;;3.55;;
73980;SDS011;62348;51.412;5.436;2023-05-07T13:00:44;4.85;;;3.65;;
73980;SDS011;62348;51.412;5.436;2023-05-07T13:03:12;5.82;;;3.80;;
73980;SDS011;62348;51.412;5.436;2023-05-07T13:05:46;4.22;;;3.35;;
73980;SDS011;62348;51.412;5.436;2023-05-07T13:08:11;5.40;;;3.60;;
73980;SDS011;62348;51.412;5.436;2023-05-07T13:10:37;6.28;;;3.58;;
73980;SDS011;62348;51.412;5.436;2023-05-07T13:13:02;7.75;;;3.92;;
73980;SDS011;62348;51.412;5.436;2023-05-07T13:15:28;5.72;;;3.78;;
73980;SDS011;62348;51.412;5.436;2023-05-07T13:17:53;6.03;;;3.45;;
73980;SDS011;62348;51.412;5.436;2023-05-07T13:20:19;6.18;;;3.47;;
73980;SDS011;62348;51.412;5.436;2023-05-07T13:22:44;6.75;;;3.60;;
73980;SDS011;62348;51.412;5.436;2023-05-07T13:25:09;3.75;;;2.60;;
73980;SDS011;62348;51.412;5.436;2023-05-07T13:27:35;3.20;;;2.45;;
73980;SDS011;62348;51.412;5.436;2023-05-07T13:30:02;3.90;;;1.90;;
73980;SDS011;62348;51.412;5.436;2023-05-07T13:32:28;7.35;;;3.85;;
73980;SDS011;62348;51.412;5.436;2023-05-07T13:34:54;7.93;;;3.20;;
73980;SDS011;62348;51.412;5.436;2023-05-07T13:37:20;5.72;;;2.80;;
73980;SDS011;62348;51.412;5.436;2023-05-07T13:39:46;5.00;;;3.13;;
73980;SDS011;62348;51.412;5.436;2023-05-07T13:42:11;4.85;;;2.78;;
73980;SDS011;62348;51.412;5.436;2023-05-07T13:44:36;3.13;;;2.30;;
73980;SDS011;62348;51.412;5.436;2023-05-07T13:47:02;5.78;;;1.98;;
73980;SDS011;62348;51.412;5.436;2023-05-07T13:49:27;2.72;;;1.80;;
73980;SDS011;62348;51.412;5.436;2023-05-07T13:51:53;2.28;;;1.67;;
73980;SDS011;62348;51.412;5.436;2023-05-07T13:54:18;2.95;;;2.10;;
73980;SDS011;62348;51.412;5.436;2023-05-07T13:56:43;2.95;;;1.77;;
73980;SDS011;62348;51.412;5.436;2023-05-07T13:59:09;3.97;;;2.00;;
73980;SDS011;62348;51.412;5.436;2023-05-07T14:01:34;5.18;;;3.10;;
73980;SDS011;62348;51.412;5.436;2023-05-07T14:04:00;2.92;;;2.50;;
73980;SDS011;62348;51.412;5.436;2023-05-07T14:06:25;4.25;;;2.80;;
73980;SDS011;62348;51.412;5.436;2023-05-07T14:08:51;8.18;;;3.75;;
73980;SDS011;62348;51.412;5.436;2023-05-07T14:11:16;9.05;;;3.53;;
73980;SDS011;62348;51.412;5.436;2023-05-07T14:13:42;4.40;;;3.95;;
73980;SDS011;62348;51.412;5.436;2023-05-07T14:16:07;5.30;;;4.53;;
73980;SDS011;62348;51.412;5.436;2023-05-07T14:18:33;7.55;;;4.78;;
73980;SDS011;62348;51.412;5.436;2023-05-07T14:20:59;4.80;;;4.22;;
73980;SDS011;62348;51.412;5.436;2023-05-07T14:23:24;7.20;;;5.13;;
73980;SDS011;62348;51.412;5.436;2023-05-07T14:25:51;6.82;;;6.20;;
73980;SDS011;62348;51.412;5.436;2023-05-07T14:28:18;9.32;;;7.32;;